EJA6946 KSLC-KELP
Flight info
| Callsign | EJA6946 |
|---|---|
| Flight time | 1h 42m |
| Altitude | 41000 |
| Route | ARCHZ1 MLF CORKR BAVPE J86 GREBE MOLLY5 WHOLE |
| Aircraft | C700/M-G/C |
Departure
| Time | 2026-05-08 17:22 |
|---|---|
| Airport | Salt Lake City International Airport (KSLC) |
Arrival
| Time | 2026-05-08 19:04 |
|---|---|
| Airport | El Paso International Airport (KELP) |
| Time | Latitude | Longitude | Altitude | Speed | Heading |
|---|---|---|---|---|---|
| 2026-05-08 16:53 | 40.77725 | -111.95854 | 4231 ft | 0 kts | 14° |
| 2026-05-08 17:09 | 40.77723 | -111.95854 | 4222 ft | 2 kts | 14° |
| 2026-05-08 17:10 | 40.77713 | -111.95869 | 4231 ft | 2 kts | 108° |
| 2026-05-08 17:10 | 40.77725 | -111.95878 | 4231 ft | 2 kts | 216° |
| 2026-05-08 17:10 | 40.77721 | -111.95883 | 4232 ft | 2 kts | 216° |
| 2026-05-08 17:10 | 40.77711 | -111.95893 | 4232 ft | 2 kts | 216° |
| 2026-05-08 17:11 | 40.77703 | -111.95908 | 4232 ft | 2 kts | 252° |
| 2026-05-08 17:11 | 40.77702 | -111.95918 | 4233 ft | 0 kts | 260° |
| 2026-05-08 17:16 | 40.77701 | -111.95920 | 4233 ft | 2 kts | 260° |
| 2026-05-08 17:16 | 40.77700 | -111.95971 | 4233 ft | 10 kts | 271° |
| 2026-05-08 17:17 | 40.77700 | -111.96023 | 4233 ft | 7 kts | 263° |
| 2026-05-08 17:17 | 40.77642 | -111.96064 | 4234 ft | 15 kts | 181° |
| 2026-05-08 17:17 | 40.77502 | -111.96063 | 4234 ft | 25 kts | 179° |
| 2026-05-08 17:17 | 40.77334 | -111.96064 | 4234 ft | 17 kts | 179° |
| 2026-05-08 17:18 | 40.77281 | -111.96080 | 4233 ft | 0 kts | 227° |
| 2026-05-08 17:19 | 40.77272 | -111.96122 | 4232 ft | 10 kts | 268° |
| 2026-05-08 17:19 | 40.77299 | -111.96252 | 4231 ft | 19 kts | 302° |
| 2026-05-08 17:19 | 40.77332 | -111.96294 | 4231 ft | 0 kts | 329° |
| 2026-05-08 17:20 | 40.77335 | -111.96296 | 4232 ft | 2 kts | 329° |
| 2026-05-08 17:20 | 40.77356 | -111.96280 | 4232 ft | 5 kts | 76° |
| 2026-05-08 17:20 | 40.77355 | -111.96211 | 4232 ft | 4 kts | 24° |
| 2026-05-08 17:20 | 40.77362 | -111.96209 | 4232 ft | 0 kts | 10° |
| 2026-05-08 17:21 | 40.77380 | -111.96206 | 4233 ft | 22 kts | 4° |
| 2026-05-08 17:21 | 40.77859 | -111.96210 | 4232 ft | 112 kts | 358° |
| 2026-05-08 17:21 | 40.78784 | -111.96215 | 4532 ft | 157 kts | 359° |
| 2026-05-08 17:22 | 40.79965 | -111.96159 | 5283 ft | 187 kts | 0° |
| 2026-05-08 17:22 | 40.81435 | -111.96177 | 5990 ft | 233 kts | 351° |
| 2026-05-08 17:22 | 40.82959 | -111.97167 | 6892 ft | 262 kts | 313° |
| 2026-05-08 17:22 | 40.83858 | -111.99321 | 8142 ft | 281 kts | 283° |
| 2026-05-08 17:23 | 40.84112 | -112.01800 | 9009 ft | 287 kts | 275° |
| 2026-05-08 17:23 | 40.84157 | -112.04427 | 9016 ft | 283 kts | 268° |
| 2026-05-08 17:23 | 40.83961 | -112.06843 | 9009 ft | 273 kts | 261° |
| 2026-05-08 17:23 | 40.83369 | -112.09207 | 8999 ft | 274 kts | 243° |
| 2026-05-08 17:24 | 40.82307 | -112.11321 | 8999 ft | 279 kts | 236° |
| 2026-05-08 17:24 | 40.81201 | -112.13288 | 9000 ft | 280 kts | 235° |
| 2026-05-08 17:24 | 40.80072 | -112.15260 | 9329 ft | 284 kts | 235° |
| 2026-05-08 17:24 | 40.78880 | -112.17296 | 10847 ft | 289 kts | 235° |
| 2026-05-08 17:25 | 40.77583 | -112.19472 | 11876 ft | 309 kts | 235° |
| 2026-05-08 17:25 | 40.76243 | -112.21697 | 13427 ft | 313 kts | 235° |
| 2026-05-08 17:25 | 40.74870 | -112.23969 | 14753 ft | 322 kts | 234° |
| 2026-05-08 17:25 | 40.73217 | -112.26041 | 16028 ft | 334 kts | 223° |
| 2026-05-08 17:26 | 40.71226 | -112.27719 | 17264 ft | 348 kts | 211° |
| 2026-05-08 17:26 | 40.68899 | -112.28832 | 18466 ft | 364 kts | 198° |
| 2026-05-08 17:26 | 40.66353 | -112.29311 | 19467 ft | 375 kts | 190° |
| 2026-05-08 17:26 | 40.63761 | -112.29641 | 20449 ft | 383 kts | 190° |
| 2026-05-08 17:27 | 40.61072 | -112.30159 | 21411 ft | 389 kts | 194° |
| 2026-05-08 17:27 | 40.58383 | -112.30806 | 22339 ft | 396 kts | 194° |
| 2026-05-08 17:27 | 40.55819 | -112.31452 | 23195 ft | 400 kts | 199° |
| 2026-05-08 17:27 | 40.53151 | -112.32571 | 24054 ft | 405 kts | 202° |
| 2026-05-08 17:28 | 40.50396 | -112.33673 | 24901 ft | 411 kts | 201° |
| 2026-05-08 17:28 | 40.47646 | -112.34759 | 25724 ft | 416 kts | 201° |
| 2026-05-08 17:28 | 40.45803 | -112.35516 | 26248 ft | 419 kts | 202° |
| 2026-05-08 17:28 | 40.42091 | -112.37063 | 27259 ft | 427 kts | 201° |
| 2026-05-08 17:29 | 40.39238 | -112.38224 | 28020 ft | 432 kts | 201° |
| 2026-05-08 17:29 | 40.36348 | -112.39390 | 28773 ft | 437 kts | 201° |
| 2026-05-08 17:29 | 40.33427 | -112.40581 | 29526 ft | 442 kts | 201° |
| 2026-05-08 17:29 | 40.30470 | -112.41791 | 30234 ft | 448 kts | 201° |
| 2026-05-08 17:30 | 40.28455 | -112.42612 | 30663 ft | 451 kts | 201° |
| 2026-05-08 17:30 | 40.25441 | -112.43833 | 31273 ft | 455 kts | 201° |
| 2026-05-08 17:30 | 40.22407 | -112.45062 | 31880 ft | 459 kts | 201° |
| 2026-05-08 17:30 | 40.19345 | -112.46324 | 32460 ft | 462 kts | 202° |
| 2026-05-08 17:31 | 40.16416 | -112.48044 | 33015 ft | 462 kts | 212° |
| 2026-05-08 17:31 | 40.13588 | -112.50061 | 33578 ft | 465 kts | 212° |
| 2026-05-08 17:31 | 40.10757 | -112.52047 | 34085 ft | 469 kts | 212° |
| 2026-05-08 17:31 | 40.07833 | -112.54089 | 34536 ft | 473 kts | 212° |
| 2026-05-08 17:32 | 40.04925 | -112.56138 | 34979 ft | 476 kts | 212° |
| 2026-05-08 17:32 | 40.02136 | -112.58107 | 35384 ft | 479 kts | 212° |
| 2026-05-08 17:32 | 39.99446 | -112.59993 | 35819 ft | 480 kts | 212° |
| 2026-05-08 17:32 | 39.96486 | -112.62058 | 36394 ft | 478 kts | 212° |
| 2026-05-08 17:33 | 39.93560 | -112.64105 | 36882 ft | 478 kts | 212° |
| 2026-05-08 17:33 | 39.90638 | -112.66156 | 37360 ft | 476 kts | 212° |
| 2026-05-08 17:33 | 39.87720 | -112.68198 | 37803 ft | 475 kts | 212° |
| 2026-05-08 17:33 | 39.84810 | -112.70226 | 38226 ft | 474 kts | 212° |
| 2026-05-08 17:34 | 39.81898 | -112.72254 | 38587 ft | 474 kts | 212° |
| 2026-05-08 17:34 | 39.78998 | -112.74277 | 38899 ft | 473 kts | 212° |
| 2026-05-08 17:34 | 39.76101 | -112.76297 | 39182 ft | 472 kts | 212° |
| 2026-05-08 17:34 | 39.73206 | -112.78309 | 39451 ft | 471 kts | 212° |
| 2026-05-08 17:35 | 39.70294 | -112.80273 | 39696 ft | 473 kts | 208° |
| 2026-05-08 17:35 | 39.67185 | -112.81717 | 39942 ft | 477 kts | 198° |
| 2026-05-08 17:35 | 39.63921 | -112.82536 | 40193 ft | 479 kts | 189° |
| 2026-05-08 17:35 | 39.60609 | -112.83015 | 40438 ft | 479 kts | 189° |
| 2026-05-08 17:36 | 39.57445 | -112.83489 | 40664 ft | 479 kts | 189° |
| 2026-05-08 17:36 | 39.54134 | -112.83993 | 40885 ft | 478 kts | 189° |
| 2026-05-08 17:36 | 39.50826 | -112.84487 | 41005 ft | 480 kts | 189° |
| 2026-05-08 17:36 | 39.47489 | -112.84979 | 41014 ft | 485 kts | 189° |
| 2026-05-08 17:37 | 39.40739 | -112.85986 | 41020 ft | 491 kts | 189° |
| 2026-05-08 17:37 | 39.33959 | -112.86991 | 41014 ft | 489 kts | 189° |
| 2026-05-08 17:38 | 39.27359 | -112.87971 | 40999 ft | 486 kts | 189° |
| 2026-05-08 17:38 | 39.20650 | -112.88964 | 40973 ft | 486 kts | 189° |
| 2026-05-08 17:39 | 39.14142 | -112.89926 | 40965 ft | 489 kts | 189° |
| 2026-05-08 17:39 | 39.07372 | -112.90923 | 40964 ft | 490 kts | 189° |
| 2026-05-08 17:40 | 39.00664 | -112.91909 | 40962 ft | 487 kts | 189° |
| 2026-05-08 17:40 | 38.93955 | -112.92896 | 40961 ft | 485 kts | 189° |
| 2026-05-08 17:41 | 38.87247 | -112.93878 | 40962 ft | 485 kts | 189° |
| 2026-05-08 17:41 | 38.80672 | -112.94841 | 40958 ft | 487 kts | 189° |
| 2026-05-08 17:42 | 38.74084 | -112.95802 | 40987 ft | 488 kts | 189° |
| 2026-05-08 17:42 | 38.67327 | -112.96787 | 41026 ft | 488 kts | 189° |
| 2026-05-08 17:43 | 38.60751 | -112.97743 | 41064 ft | 486 kts | 189° |
| 2026-05-08 17:43 | 38.54063 | -112.98713 | 41107 ft | 482 kts | 189° |
| 2026-05-08 17:44 | 38.47406 | -112.99681 | 41113 ft | 482 kts | 189° |
| 2026-05-08 17:44 | 38.40716 | -113.00647 | 41124 ft | 485 kts | 189° |
| 2026-05-08 17:45 | 38.34099 | -113.00716 | 41117 ft | 491 kts | 174° |
| 2026-05-08 17:45 | 38.27475 | -112.98936 | 41085 ft | 489 kts | 169° |
| 2026-05-08 17:46 | 38.20982 | -112.97159 | 41042 ft | 487 kts | 169° |
| 2026-05-08 17:46 | 38.14517 | -112.95361 | 40996 ft | 488 kts | 169° |
| 2026-05-08 17:47 | 38.07903 | -112.93544 | 40955 ft | 490 kts | 169° |
| 2026-05-08 17:47 | 38.02312 | -112.92001 | 40964 ft | 492 kts | 169° |
| 2026-05-08 17:48 | 37.94543 | -112.89867 | 41012 ft | 491 kts | 169° |
| 2026-05-08 17:48 | 37.87877 | -112.88037 | 41045 ft | 489 kts | 169° |
| 2026-05-08 17:49 | 37.81391 | -112.86263 | 41067 ft | 488 kts | 169° |
| 2026-05-08 17:49 | 37.74763 | -112.84450 | 41072 ft | 486 kts | 169° |
| 2026-05-08 17:50 | 37.68295 | -112.82687 | 41074 ft | 487 kts | 169° |
| 2026-05-08 17:50 | 37.61663 | -112.80880 | 41058 ft | 488 kts | 169° |
| 2026-05-08 17:51 | 37.55163 | -112.79114 | 41029 ft | 488 kts | 169° |
| 2026-05-08 17:51 | 37.48685 | -112.77357 | 41001 ft | 487 kts | 169° |
| 2026-05-08 17:52 | 37.42068 | -112.75563 | 40976 ft | 485 kts | 169° |
| 2026-05-08 17:53 | 37.32204 | -112.72899 | 40973 ft | 481 kts | 169° |
| 2026-05-08 17:53 | 37.25842 | -112.71183 | 40967 ft | 482 kts | 169° |
| 2026-05-08 17:54 | 37.19237 | -112.69406 | 40967 ft | 484 kts | 169° |
| 2026-05-08 17:54 | 37.12692 | -112.67647 | 40982 ft | 485 kts | 169° |
| 2026-05-08 17:55 | 37.06103 | -112.65880 | 40990 ft | 483 kts | 169° |
| 2026-05-08 17:55 | 36.99499 | -112.64112 | 40993 ft | 481 kts | 169° |
| 2026-05-08 17:56 | 36.93008 | -112.62378 | 40982 ft | 479 kts | 169° |
| 2026-05-08 17:56 | 36.86583 | -112.60663 | 40964 ft | 481 kts | 169° |
| 2026-05-08 17:57 | 36.80076 | -112.58930 | 40951 ft | 482 kts | 169° |
| 2026-05-08 17:57 | 36.73464 | -112.57172 | 40963 ft | 483 kts | 169° |
| 2026-05-08 17:58 | 36.67088 | -112.55480 | 40965 ft | 483 kts | 169° |
| 2026-05-08 17:58 | 36.60516 | -112.53739 | 40964 ft | 482 kts | 169° |
| 2026-05-08 17:59 | 36.53962 | -112.52006 | 40972 ft | 481 kts | 169° |
| 2026-05-08 17:59 | 36.47479 | -112.50293 | 40969 ft | 480 kts | 169° |
| 2026-05-08 18:00 | 36.41051 | -112.48600 | 40976 ft | 479 kts | 169° |
| 2026-05-08 18:00 | 36.31388 | -112.46058 | 40985 ft | 482 kts | 169° |
| 2026-05-08 18:01 | 36.24818 | -112.44334 | 40991 ft | 483 kts | 169° |
| 2026-05-08 18:01 | 36.18386 | -112.42649 | 41017 ft | 482 kts | 169° |
| 2026-05-08 18:02 | 36.12930 | -112.41207 | 41054 ft | 482 kts | 168° |
| 2026-05-08 18:02 | 36.08714 | -112.39298 | 41082 ft | 484 kts | 154° |
| 2026-05-08 18:02 | 36.05825 | -112.37172 | 41107 ft | 484 kts | 145° |
| 2026-05-08 18:03 | 36.00663 | -112.31835 | 41169 ft | 484 kts | 139° |
| 2026-05-08 18:03 | 35.95539 | -112.26439 | 41219 ft | 484 kts | 139° |
| 2026-05-08 18:04 | 35.90543 | -112.21158 | 41226 ft | 485 kts | 139° |
| 2026-05-08 18:04 | 35.85518 | -112.15873 | 40980 ft | 486 kts | 139° |
| 2026-05-08 18:05 | 35.80373 | -112.10461 | 40980 ft | 487 kts | 139° |
| 2026-05-08 18:05 | 35.75367 | -112.05210 | 40983 ft | 488 kts | 140° |
| 2026-05-08 18:06 | 35.70197 | -111.99793 | 40990 ft | 488 kts | 140° |
| 2026-05-08 18:06 | 35.65023 | -111.94384 | 40996 ft | 487 kts | 140° |
| 2026-05-08 18:07 | 35.59946 | -111.88894 | 40990 ft | 486 kts | 133° |
| 2026-05-08 18:07 | 35.56189 | -111.82277 | 40994 ft | 483 kts | 119° |
| 2026-05-08 18:08 | 35.52766 | -111.75152 | 40986 ft | 485 kts | 120° |
| 2026-05-08 18:08 | 35.49330 | -111.68009 | 40991 ft | 488 kts | 119° |
| 2026-05-08 18:09 | 35.45876 | -111.60842 | 41018 ft | 486 kts | 120° |
| 2026-05-08 18:09 | 35.42445 | -111.53742 | 41031 ft | 483 kts | 120° |
| 2026-05-08 18:10 | 35.39018 | -111.46657 | 41030 ft | 484 kts | 120° |
| 2026-05-08 18:10 | 35.35571 | -111.39554 | 41015 ft | 487 kts | 120° |
| 2026-05-08 18:11 | 35.32101 | -111.32412 | 40991 ft | 488 kts | 120° |
| 2026-05-08 18:11 | 35.28636 | -111.25300 | 40968 ft | 485 kts | 120° |
| 2026-05-08 18:12 | 35.25268 | -111.18399 | 40969 ft | 483 kts | 120° |
| 2026-05-08 18:12 | 35.21808 | -111.11323 | 40973 ft | 486 kts | 120° |
| 2026-05-08 18:13 | 35.18323 | -111.04211 | 41011 ft | 489 kts | 120° |
| 2026-05-08 18:13 | 35.14831 | -110.97100 | 41052 ft | 487 kts | 120° |
| 2026-05-08 18:14 | 35.11349 | -110.90024 | 41091 ft | 484 kts | 120° |
| 2026-05-08 18:14 | 35.07979 | -110.83186 | 41129 ft | 484 kts | 120° |
| 2026-05-08 18:15 | 35.04107 | -110.76440 | 41135 ft | 488 kts | 129° |
| 2026-05-08 18:15 | 34.99761 | -110.70044 | 41141 ft | 490 kts | 128° |
| 2026-05-08 18:16 | 34.95435 | -110.63627 | 41133 ft | 489 kts | 129° |
| 2026-05-08 18:16 | 34.91803 | -110.58294 | 41104 ft | 488 kts | 128° |
| 2026-05-08 18:17 | 34.87623 | -110.52119 | 41069 ft | 486 kts | 129° |
| 2026-05-08 18:17 | 34.83279 | -110.45748 | 41028 ft | 486 kts | 129° |
| 2026-05-08 18:18 | 34.78987 | -110.39442 | 40988 ft | 488 kts | 129° |
| 2026-05-08 18:18 | 34.74644 | -110.33087 | 40994 ft | 490 kts | 129° |
| 2026-05-08 18:19 | 34.70279 | -110.26704 | 41046 ft | 491 kts | 129° |
| 2026-05-08 18:19 | 34.65918 | -110.20343 | 41093 ft | 489 kts | 129° |
| 2026-05-08 18:20 | 34.61573 | -110.14012 | 41136 ft | 487 kts | 129° |
| 2026-05-08 18:20 | 34.57230 | -110.07700 | 41172 ft | 487 kts | 129° |
| 2026-05-08 18:21 | 34.52877 | -110.01382 | 41181 ft | 490 kts | 129° |
| 2026-05-08 18:21 | 34.48592 | -109.95176 | 41152 ft | 492 kts | 129° |
| 2026-05-08 18:22 | 34.44201 | -109.88824 | 41103 ft | 490 kts | 129° |
| 2026-05-08 18:22 | 34.39826 | -109.82509 | 41113 ft | 488 kts | 129° |
| 2026-05-08 18:23 | 34.35563 | -109.76366 | 41089 ft | 488 kts | 129° |
| 2026-05-08 18:23 | 34.31185 | -109.70069 | 41055 ft | 490 kts | 129° |
| 2026-05-08 18:24 | 34.26777 | -109.63739 | 41012 ft | 493 kts | 129° |
| 2026-05-08 18:24 | 34.22695 | -109.57341 | 41085 ft | 490 kts | 126° |
| 2026-05-08 18:25 | 34.18579 | -109.50802 | 41155 ft | 488 kts | 126° |
| 2026-05-08 18:25 | 34.14366 | -109.44388 | 41216 ft | 488 kts | 129° |
| 2026-05-08 18:26 | 34.09916 | -109.38168 | 41239 ft | 491 kts | 129° |
| 2026-05-08 18:26 | 34.05682 | -109.32179 | 41239 ft | 493 kts | 129° |
| 2026-05-08 18:27 | 34.02000 | -109.27026 | 41209 ft | 491 kts | 129° |
| 2026-05-08 18:27 | 33.96817 | -109.19751 | 41140 ft | 488 kts | 129° |
| 2026-05-08 18:28 | 33.92405 | -109.13584 | 41068 ft | 491 kts | 129° |
| 2026-05-08 18:28 | 33.87937 | -109.07340 | 40991 ft | 493 kts | 129° |
| 2026-05-08 18:29 | 33.83468 | -109.01110 | 40941 ft | 490 kts | 129° |
| 2026-05-08 18:29 | 33.79013 | -108.94908 | 40930 ft | 489 kts | 130° |
| 2026-05-08 18:30 | 33.74563 | -108.88726 | 40929 ft | 490 kts | 130° |
| 2026-05-08 18:30 | 33.70101 | -108.82535 | 40923 ft | 491 kts | 130° |
| 2026-05-08 18:31 | 33.65731 | -108.76485 | 40923 ft | 492 kts | 130° |
| 2026-05-08 18:31 | 33.61240 | -108.70277 | 40931 ft | 493 kts | 130° |
| 2026-05-08 18:32 | 33.56758 | -108.64090 | 40927 ft | 490 kts | 130° |
| 2026-05-08 18:32 | 33.52399 | -108.58087 | 40928 ft | 489 kts | 130° |
| 2026-05-08 18:33 | 33.47937 | -108.51950 | 40931 ft | 488 kts | 130° |
| 2026-05-08 18:33 | 33.43473 | -108.45821 | 40931 ft | 488 kts | 130° |
| 2026-05-08 18:34 | 33.39004 | -108.39697 | 40937 ft | 488 kts | 130° |
| 2026-05-08 18:34 | 33.34528 | -108.33572 | 40935 ft | 489 kts | 130° |
| 2026-05-08 18:35 | 33.30048 | -108.27451 | 40938 ft | 489 kts | 130° |
| 2026-05-08 18:35 | 33.25673 | -108.21489 | 40933 ft | 490 kts | 130° |
| 2026-05-08 18:36 | 33.21100 | -108.15439 | 40928 ft | 490 kts | 136° |
| 2026-05-08 18:36 | 33.16182 | -108.10097 | 40931 ft | 488 kts | 137° |
| 2026-05-08 18:37 | 33.11320 | -108.04728 | 40924 ft | 486 kts | 137° |
| 2026-05-08 18:37 | 33.06319 | -107.99276 | 40282 ft | 479 kts | 137° |
| 2026-05-08 18:38 | 33.03912 | -107.96644 | 39681 ft | 472 kts | 136° |
| 2026-05-08 18:38 | 33.01474 | -107.93968 | 39078 ft | 479 kts | 136° |
| 2026-05-08 18:38 | 32.99016 | -107.91282 | 38449 ft | 480 kts | 135° |
| 2026-05-08 18:38 | 32.96557 | -107.88609 | 37803 ft | 477 kts | 135° |
| 2026-05-08 18:39 | 32.94119 | -107.85956 | 37204 ft | 473 kts | 135° |
| 2026-05-08 18:39 | 32.91701 | -107.83318 | 36604 ft | 471 kts | 135° |
| 2026-05-08 18:39 | 32.89276 | -107.80679 | 36005 ft | 474 kts | 134° |
| 2026-05-08 18:39 | 32.86828 | -107.78030 | 35396 ft | 478 kts | 134° |
| 2026-05-08 18:40 | 32.84357 | -107.75359 | 34791 ft | 481 kts | 134° |
| 2026-05-08 18:40 | 32.81874 | -107.72670 | 34180 ft | 483 kts | 133° |
| 2026-05-08 18:40 | 32.79424 | -107.70016 | 33533 ft | 483 kts | 133° |
| 2026-05-08 18:40 | 32.76910 | -107.67301 | 32907 ft | 480 kts | 133° |
| 2026-05-08 18:41 | 32.74474 | -107.64674 | 32304 ft | 481 kts | 133° |
| 2026-05-08 18:41 | 32.71986 | -107.61984 | 31687 ft | 486 kts | 133° |
| 2026-05-08 18:41 | 32.69474 | -107.59274 | 31067 ft | 488 kts | 133° |
| 2026-05-08 18:41 | 32.66959 | -107.56568 | 30444 ft | 488 kts | 133° |
| 2026-05-08 18:42 | 32.64444 | -107.53863 | 29798 ft | 487 kts | 133° |
| 2026-05-08 18:42 | 32.61948 | -107.51178 | 29157 ft | 481 kts | 133° |
| 2026-05-08 18:42 | 32.59486 | -107.48534 | 28544 ft | 473 kts | 133° |
| 2026-05-08 18:42 | 32.57063 | -107.45931 | 27942 ft | 467 kts | 133° |
| 2026-05-08 18:43 | 32.54667 | -107.43358 | 27352 ft | 463 kts | 133° |
| 2026-05-08 18:43 | 32.52296 | -107.40815 | 26767 ft | 460 kts | 133° |
| 2026-05-08 18:43 | 32.49928 | -107.38279 | 26185 ft | 456 kts | 133° |
| 2026-05-08 18:43 | 32.47581 | -107.35767 | 25600 ft | 452 kts | 133° |
| 2026-05-08 18:44 | 32.45260 | -107.33283 | 25026 ft | 448 kts | 133° |
| 2026-05-08 18:44 | 32.42962 | -107.30826 | 24466 ft | 444 kts | 133° |
| 2026-05-08 18:44 | 32.40682 | -107.28390 | 23925 ft | 440 kts | 133° |
| 2026-05-08 18:44 | 32.38419 | -107.25974 | 23371 ft | 436 kts | 133° |
| 2026-05-08 18:45 | 32.36186 | -107.23593 | 22811 ft | 431 kts | 134° |
| 2026-05-08 18:45 | 32.33968 | -107.21227 | 22280 ft | 426 kts | 134° |
| 2026-05-08 18:45 | 32.31771 | -107.18887 | 21759 ft | 424 kts | 134° |
| 2026-05-08 18:45 | 32.29583 | -107.16555 | 21239 ft | 424 kts | 134° |
| 2026-05-08 18:46 | 32.27395 | -107.14229 | 20710 ft | 421 kts | 135° |
| 2026-05-08 18:46 | 32.25234 | -107.11931 | 20198 ft | 416 kts | 135° |
| 2026-05-08 18:46 | 32.23092 | -107.09655 | 19681 ft | 413 kts | 135° |
| 2026-05-08 18:46 | 32.20967 | -107.07399 | 19168 ft | 410 kts | 136° |
| 2026-05-08 18:47 | 32.18852 | -107.05155 | 18652 ft | 407 kts | 136° |
| 2026-05-08 18:47 | 32.16750 | -107.02925 | 18108 ft | 406 kts | 136° |
| 2026-05-08 18:47 | 32.14682 | -107.00685 | 17573 ft | 401 kts | 133° |
| 2026-05-08 18:47 | 32.13040 | -106.98080 | 17036 ft | 394 kts | 115° |
| 2026-05-08 18:48 | 32.12288 | -106.95033 | 16531 ft | 386 kts | 94° |
| 2026-05-08 18:48 | 32.12524 | -106.91922 | 16049 ft | 379 kts | 72° |
| 2026-05-08 18:48 | 32.13634 | -106.89191 | 15615 ft | 373 kts | 55° |
| 2026-05-08 18:48 | 32.15149 | -106.86732 | 15218 ft | 370 kts | 50° |
| 2026-05-08 18:49 | 32.16770 | -106.84375 | 14824 ft | 369 kts | 49° |
| 2026-05-08 18:49 | 32.18427 | -106.82056 | 14435 ft | 369 kts | 48° |
| 2026-05-08 18:49 | 32.20089 | -106.79757 | 14046 ft | 368 kts | 47° |
| 2026-05-08 18:49 | 32.21749 | -106.77469 | 13671 ft | 366 kts | 47° |
| 2026-05-08 18:50 | 32.23397 | -106.75197 | 13259 ft | 363 kts | 47° |
| 2026-05-08 18:50 | 32.25035 | -106.72937 | 12862 ft | 361 kts | 47° |
| 2026-05-08 18:50 | 32.26471 | -106.70528 | 12429 ft | 355 kts | 59° |
| 2026-05-08 18:50 | 32.27359 | -106.67897 | 12226 ft | 335 kts | 75° |
| 2026-05-08 18:51 | 32.27263 | -106.65149 | 12834 ft | 343 kts | 99° |
| 2026-05-08 18:51 | 32.26663 | -106.62476 | 12893 ft | 329 kts | 105° |
| 2026-05-08 18:51 | 32.25962 | -106.60001 | 12866 ft | 306 kts | 107° |
| 2026-05-08 18:51 | 32.25276 | -106.57710 | 12852 ft | 286 kts | 108° |
| 2026-05-08 18:52 | 32.24655 | -106.55670 | 12833 ft | 270 kts | 107° |
| 2026-05-08 18:52 | 32.24024 | -106.53635 | 12822 ft | 258 kts | 108° |
| 2026-05-08 18:52 | 32.23401 | -106.51642 | 12811 ft | 261 kts | 107° |
| 2026-05-08 18:52 | 32.22794 | -106.49694 | 12799 ft | 267 kts | 107° |
| 2026-05-08 18:53 | 32.22166 | -106.47668 | 12782 ft | 264 kts | 108° |
| 2026-05-08 18:53 | 32.21546 | -106.45668 | 12420 ft | 264 kts | 108° |
| 2026-05-08 18:53 | 32.20917 | -106.43635 | 12070 ft | 262 kts | 108° |
| 2026-05-08 18:53 | 32.20295 | -106.41623 | 11736 ft | 260 kts | 107° |
| 2026-05-08 18:54 | 32.19707 | -106.39717 | 11430 ft | 259 kts | 107° |
| 2026-05-08 18:54 | 32.19091 | -106.37729 | 11115 ft | 257 kts | 107° |
| 2026-05-08 18:54 | 32.18481 | -106.35756 | 10815 ft | 255 kts | 107° |
| 2026-05-08 18:54 | 32.17901 | -106.33888 | 10534 ft | 253 kts | 108° |
| 2026-05-08 18:55 | 32.16704 | -106.29992 | 9925 ft | 251 kts | 107° |
| 2026-05-08 18:55 | 32.16108 | -106.28066 | 9609 ft | 249 kts | 107° |
| 2026-05-08 18:55 | 32.15516 | -106.26150 | 9301 ft | 248 kts | 108° |
| 2026-05-08 18:56 | 32.14931 | -106.24241 | 8964 ft | 247 kts | 107° |
| 2026-05-08 18:56 | 32.14350 | -106.22328 | 8627 ft | 247 kts | 107° |
| 2026-05-08 18:56 | 32.13772 | -106.20423 | 8292 ft | 246 kts | 108° |
| 2026-05-08 18:56 | 32.13096 | -106.18575 | 7942 ft | 248 kts | 123° |
| 2026-05-08 18:57 | 32.11760 | -106.17350 | 7846 ft | 244 kts | 158° |
| 2026-05-08 18:57 | 32.10761 | -106.16999 | 7843 ft | 243 kts | 166° |
| 2026-05-08 18:57 | 32.08552 | -106.16400 | 7856 ft | 250 kts | 167° |
| 2026-05-08 18:57 | 32.06844 | -106.15938 | 7877 ft | 252 kts | 167° |
| 2026-05-08 18:58 | 32.05157 | -106.15498 | 7655 ft | 247 kts | 167° |
| 2026-05-08 18:58 | 32.03452 | -106.15055 | 7324 ft | 249 kts | 167° |
| 2026-05-08 18:58 | 32.01769 | -106.14614 | 7044 ft | 247 kts | 168° |
| 2026-05-08 18:58 | 32.00077 | -106.14631 | 6895 ft | 239 kts | 193° |
| 2026-05-08 18:59 | 31.98487 | -106.15143 | 6895 ft | 238 kts | 198° |
| 2026-05-08 18:59 | 31.96872 | -106.15687 | 6910 ft | 244 kts | 197° |
| 2026-05-08 18:59 | 31.95390 | -106.16604 | 6904 ft | 241 kts | 223° |
| 2026-05-08 18:59 | 31.94489 | -106.18221 | 6924 ft | 237 kts | 253° |
| 2026-05-08 19:00 | 31.94319 | -106.19502 | 6924 ft | 235 kts | 273° |
| 2026-05-08 19:00 | 31.95038 | -106.21831 | 6942 ft | 231 kts | 308° |
| 2026-05-08 19:00 | 31.95752 | -106.23524 | 6927 ft | 237 kts | 281° |
| 2026-05-08 19:00 | 31.95496 | -106.25376 | 6937 ft | 230 kts | 244° |
| 2026-05-08 19:01 | 31.94435 | -106.26752 | 6959 ft | 228 kts | 220° |
| 2026-05-08 19:01 | 31.93175 | -106.27893 | 6974 ft | 231 kts | 219° |
| 2026-05-08 19:01 | 31.91894 | -106.29010 | 6663 ft | 229 kts | 214° |
| 2026-05-08 19:01 | 31.90439 | -106.29783 | 6279 ft | 229 kts | 200° |
| 2026-05-08 19:02 | 31.88974 | -106.30357 | 5992 ft | 211 kts | 199° |
| 2026-05-08 19:02 | 31.87666 | -106.30856 | 5941 ft | 185 kts | 200° |
| 2026-05-08 19:02 | 31.86906 | -106.31143 | 5729 ft | 184 kts | 200° |
| 2026-05-08 19:02 | 31.85491 | -106.32091 | 5126 ft | 176 kts | 238° |
| 2026-05-08 19:03 | 31.84976 | -106.33275 | 5065 ft | 164 kts | 234° |
| 2026-05-08 19:03 | 31.84176 | -106.34333 | 4994 ft | 175 kts | 229° |
| 2026-05-08 19:03 | 31.83628 | -106.35078 | 4629 ft | 180 kts | 232° |
| 2026-05-08 19:03 | 31.82922 | -106.36151 | 4347 ft | 146 kts | 230° |
| 2026-05-08 19:04 | 31.82131 | -106.37247 | 3949 ft | 125 kts | 229° |
| 2026-05-08 19:04 | 31.81803 | -106.37692 | 3949 ft | 83 kts | 229° |
| 2026-05-08 19:04 | 31.81663 | -106.37885 | 3947 ft | 19 kts | 230° |
| 2026-05-08 19:04 | 31.81574 | -106.37978 | 3942 ft | 6 kts | 168° |
| 2026-05-08 19:05 | 31.81537 | -106.37966 | 3941 ft | 5 kts | 160° |
| 2026-05-08 19:05 | 31.81500 | -106.37934 | 3940 ft | 15 kts | 143° |
| 2026-05-08 19:05 | 31.81491 | -106.37926 | 3940 ft | 0 kts | 143° |
| 2026-05-08 19:06 | 31.81479 | -106.37914 | 3940 ft | 8 kts | 141° |
| 2026-05-08 19:06 | 31.81401 | -106.37877 | 3940 ft | 16 kts | 207° |
| 2026-05-08 19:06 | 31.81309 | -106.38000 | 3939 ft | 24 kts | 229° |
| 2026-05-08 19:07 | 31.81223 | -106.38121 | 3937 ft | 20 kts | 230° |
| 2026-05-08 19:07 | 31.81132 | -106.38249 | 3939 ft | 21 kts | 230° |
| 2026-05-08 19:07 | 31.81032 | -106.38388 | 3937 ft | 24 kts | 230° |
| 2026-05-08 19:07 | 31.80923 | -106.38540 | 3938 ft | 25 kts | 230° |
| 2026-05-08 19:08 | 31.80798 | -106.38704 | 3933 ft | 28 kts | 222° |
| 2026-05-08 19:08 | 31.80646 | -106.38870 | 3928 ft | 32 kts | 223° |
| 2026-05-08 19:08 | 31.80482 | -106.39050 | 3927 ft | 33 kts | 223° |
| 2026-05-08 19:08 | 31.80333 | -106.39214 | 3928 ft | 14 kts | 222° |
| 2026-05-08 19:09 | 31.80255 | -106.39292 | 3928 ft | 16 kts | 208° |
| 2026-05-08 19:09 | 31.80180 | -106.39273 | 3927 ft | 8 kts | 142° |
| 2026-05-08 19:09 | 31.80134 | -106.39218 | 3927 ft | 11 kts | 133° |
| 2026-05-08 19:09 | 31.80074 | -106.39143 | 3927 ft | 14 kts | 135° |
| 2026-05-08 19:10 | 31.80005 | -106.39059 | 3929 ft | 15 kts | 135° |
| 2026-05-08 19:10 | 31.79988 | -106.39019 | 3930 ft | 6 kts | 94° |
| 2026-05-08 19:10 | 31.79989 | -106.38922 | 3931 ft | 18 kts | 90° |
| 2026-05-08 19:10 | 31.79990 | -106.38717 | 3932 ft | 32 kts | 90° |
| 2026-05-08 19:11 | 31.79990 | -106.38440 | 3937 ft | 34 kts | 89° |
| 2026-05-08 19:11 | 31.79992 | -106.38175 | 3938 ft | 31 kts | 90° |
| 2026-05-08 19:11 | 31.79991 | -106.37930 | 3943 ft | 30 kts | 90° |
| 2026-05-08 19:11 | 31.79989 | -106.37825 | 3943 ft | 0 kts | 91° |
| 2026-05-08 19:12 | 31.79983 | -106.37782 | 3943 ft | 9 kts | 112° |
| 2026-05-08 19:12 | 31.79923 | -106.37731 | 3944 ft | 13 kts | 137° |
| 2026-05-08 19:12 | 31.79896 | -106.37625 | 3945 ft | 16 kts | 93° |
| 2026-05-08 19:12 | 31.79863 | -106.37580 | 3946 ft | 0 kts | 188° |
| 2026-05-08 19:13 | 31.79837 | -106.37613 | 3945 ft | 8 kts | 260° |
| 2026-05-08 19:13 | 31.79833 | -106.37646 | 3945 ft | 1 kts | 263° |
| 2026-05-08 19:13 | 31.79832 | -106.37649 | 3945 ft | 0 kts | 263° |